createdAt,value
2019-05-19T00:00:55.766Z,16.10
2019-05-19T00:03:35.594Z,16.00
2019-05-19T00:06:10.349Z,15.90
2019-05-19T00:12:08.175Z,15.80
2019-05-19T00:19:25.533Z,15.80
2019-05-19T00:22:12.840Z,15.70
2019-05-19T00:24:46.303Z,15.80
2019-05-19T00:27:52.590Z,15.80
2019-05-19T00:34:42.947Z,15.60
2019-05-19T00:37:43.491Z,15.60
2019-05-19T00:40:19.522Z,15.60
2019-05-19T00:43:20.149Z,15.50
2019-05-19T00:45:52.304Z,15.50
2019-05-19T00:48:37.597Z,15.40
2019-05-19T00:51:22.577Z,15.40
2019-05-19T00:53:57.302Z,15.40
2019-05-19T00:56:31.752Z,15.40
2019-05-19T00:59:20.782Z,15.40
2019-05-19T01:02:07.803Z,15.40
2019-05-19T01:04:47.387Z,15.40
2019-05-19T01:07:21.226Z,15.40
2019-05-19T01:10:06.721Z,15.30
2019-05-19T01:12:38.596Z,15.30
2019-05-19T01:18:40.316Z,15.40
2019-05-19T01:21:30.783Z,15.30
2019-05-19T01:24:24.784Z,15.30
2019-05-19T01:34:01.824Z,15.20
2019-05-19T01:39:51.455Z,15.10
2019-05-19T01:47:03.077Z,15.00
2019-05-19T01:49:46.743Z,14.90
2019-05-19T01:52:39.310Z,14.80
2019-05-19T01:55:22.656Z,14.80
2019-05-19T01:57:58.744Z,14.90
2019-05-19T02:00:50.991Z,14.80
2019-05-19T02:03:32.987Z,14.80
2019-05-19T02:06:21.378Z,14.70
2019-05-19T02:08:56.282Z,14.70
2019-05-19T02:11:35.619Z,14.70
2019-05-19T02:14:39.994Z,14.60
2019-05-19T02:17:18.650Z,14.60
2019-05-19T02:19:51.709Z,14.70
2019-05-19T02:22:23.437Z,14.70
2019-05-19T02:25:33.807Z,14.80
2019-05-19T02:28:09.877Z,14.70
2019-05-19T02:30:52.224Z,14.70
2019-05-19T02:33:48.620Z,14.80
2019-05-19T02:36:19.385Z,14.80
2019-05-19T02:38:51.131Z,14.80
2019-05-19T02:41:53.491Z,14.70
2019-05-19T02:44:40.718Z,14.70
2019-05-19T02:47:44.483Z,14.60
2019-05-19T02:50:18.474Z,14.60
2019-05-19T02:53:00.211Z,14.50
2019-05-19T02:55:33.472Z,14.50
2019-05-19T02:58:07.556Z,14.50
2019-05-19T03:00:54.085Z,14.40
2019-05-19T03:03:34.018Z,14.40
2019-05-19T03:06:06.066Z,14.30
2019-05-19T03:08:43.534Z,14.30
2019-05-19T03:11:17.272Z,14.20
2019-05-19T03:13:48.042Z,14.20
2019-05-19T03:16:19.146Z,14.20
2019-05-19T03:18:52.657Z,14.10
2019-05-19T03:21:23.556Z,14.10
2019-05-19T03:23:54.076Z,14.10
2019-05-19T03:26:25.289Z,14.00
2019-05-19T03:29:00.318Z,14.00
2019-05-19T03:31:49.298Z,13.90
2019-05-19T03:34:25.783Z,13.80
2019-05-19T03:37:10.642Z,13.80
2019-05-19T03:39:48.221Z,13.80
2019-05-19T03:42:23.342Z,13.80
2019-05-19T03:45:01.170Z,13.70
2019-05-19T03:47:32.913Z,13.70
2019-05-19T03:50:04.981Z,13.60
2019-05-19T03:52:52.364Z,13.70
2019-05-19T03:55:30.800Z,13.60
2019-05-19T03:58:09.561Z,13.60
2019-05-19T04:00:41.847Z,13.70
2019-05-19T04:03:21.238Z,13.70
2019-05-19T04:06:01.557Z,13.70
2019-05-19T04:08:35.713Z,13.70
2019-05-19T04:11:09.775Z,13.70
2019-05-19T04:13:41.596Z,13.70
2019-05-19T04:16:17.494Z,13.70
2019-05-19T04:18:50.803Z,13.70
2019-05-19T04:21:23.372Z,13.70
2019-05-19T04:23:55.868Z,13.70
2019-05-19T04:26:29.902Z,13.80
2019-05-19T04:29:02.906Z,13.90
2019-05-19T04:31:34.797Z,14.00
2019-05-19T04:34:06.557Z,14.00
2019-05-19T04:36:37.253Z,14.00
2019-05-19T04:39:09.047Z,14.00
2019-05-19T04:41:40.278Z,14.00
2019-05-19T04:44:11.289Z,14.00
2019-05-19T04:46:44.629Z,14.00
2019-05-19T04:49:15.855Z,14.00
2019-05-19T04:51:46.960Z,14.10
2019-05-19T04:54:17.454Z,14.20
2019-05-19T04:56:47.851Z,14.30
2019-05-19T04:59:18.353Z,14.20
2019-05-19T05:01:48.576Z,14.20
2019-05-19T05:04:18.860Z,14.20
2019-05-19T05:06:59.016Z,14.10
2019-05-19T05:09:36.430Z,14.10
2019-05-19T05:12:07.025Z,14.10
2019-05-19T05:14:38.108Z,14.10
2019-05-19T05:17:08.474Z,14.20
2019-05-19T05:19:41.892Z,14.20
2019-05-19T05:22:21.750Z,14.30
2019-05-19T05:24:44.485Z,14.30
2019-05-19T05:27:15.316Z,14.30
2019-05-19T05:29:47.639Z,14.40
2019-05-19T05:32:19.482Z,14.50
2019-05-19T05:34:50.396Z,14.70
2019-05-19T05:37:21.330Z,14.70
2019-05-19T05:39:52.066Z,14.60
2019-05-19T05:42:24.847Z,14.60
2019-05-19T05:44:55.429Z,14.60
2019-05-19T05:47:25.744Z,14.70
2019-05-19T05:50:00.699Z,14.70
2019-05-19T05:52:38.705Z,14.80
2019-05-19T05:55:06.394Z,15.00
2019-05-19T05:57:38.392Z,15.10
2019-05-19T06:00:10.874Z,15.10
2019-05-19T06:02:42.206Z,15.10
2019-05-19T06:05:14.500Z,15.10
2019-05-19T06:07:44.780Z,15.20
2019-05-19T06:10:17.237Z,15.20
2019-05-19T06:12:48.913Z,15.20
2019-05-19T06:15:19.239Z,15.40
2019-05-19T06:17:50.797Z,15.50
2019-05-19T06:20:21.664Z,15.60
2019-05-19T06:23:12.084Z,15.60
2019-05-19T06:25:42.968Z,15.70
2019-05-19T06:28:14.443Z,15.70
2019-05-19T06:30:45.358Z,15.50
2019-05-19T06:33:16.465Z,15.60
2019-05-19T06:35:46.921Z,15.60
2019-05-19T06:38:19.983Z,15.70
2019-05-19T06:40:52.606Z,15.80
2019-05-19T06:43:23.224Z,15.80
2019-05-19T06:46:09.169Z,15.90
2019-05-19T06:48:27.464Z,16.00
2019-05-19T06:51:04.539Z,16.00
2019-05-19T06:53:37.235Z,16.10
2019-05-19T06:56:07.984Z,16.10
2019-05-19T06:58:38.535Z,16.20
2019-05-19T07:01:13.433Z,16.40
2019-05-19T07:03:44.340Z,16.50
2019-05-19T07:06:15.177Z,16.80
2019-05-19T07:08:45.770Z,16.90
2019-05-19T07:11:25.664Z,17.10
2019-05-19T07:13:58.353Z,17.10
2019-05-19T07:16:31.923Z,16.90
2019-05-19T07:19:18.187Z,17.00
2019-05-19T07:21:56.059Z,17.10
2019-05-19T07:24:30.438Z,17.40
2019-05-19T07:27:00.919Z,17.80
2019-05-19T07:29:34.441Z,18.00
2019-05-19T07:32:09.011Z,18.20
2019-05-19T07:34:42.244Z,18.30
2019-05-19T07:37:16.385Z,18.00
2019-05-19T07:39:53.519Z,17.80
2019-05-19T07:42:25.849Z,17.90
2019-05-19T07:45:02.806Z,17.90
2019-05-19T07:47:49.313Z,17.70
2019-05-19T07:50:25.372Z,17.60
2019-05-19T07:52:56.954Z,17.50
2019-05-19T07:55:38.788Z,17.70
2019-05-19T07:58:10.378Z,18.00
2019-05-19T08:00:44.796Z,18.60
2019-05-19T08:03:23.807Z,19.30
2019-05-19T08:05:57.701Z,19.40
2019-05-19T08:12:23.462Z,19.40
2019-05-19T08:15:00.365Z,19.20
2019-05-19T08:17:30.257Z,19.10
2019-05-19T08:20:13.992Z,19.20
2019-05-19T08:22:44.370Z,19.40
2019-05-19T08:25:21.359Z,19.20
2019-05-19T08:27:53.914Z,19.50
2019-05-19T08:30:29.223Z,19.70
2019-05-19T08:33:01.918Z,19.70
2019-05-19T08:35:32.468Z,19.60
2019-05-19T08:38:02.471Z,19.70
2019-05-19T08:40:32.400Z,19.80
2019-05-19T08:43:02.898Z,20.10
2019-05-19T08:45:37.245Z,20.40
2019-05-19T08:48:07.074Z,20.90
2019-05-19T08:50:37.248Z,21.30
2019-05-19T08:53:07.012Z,21.20
2019-05-19T08:55:37.279Z,22.00
2019-05-19T08:58:07.632Z,22.90
2019-05-19T09:00:38.781Z,22.90
2019-05-19T09:03:11.007Z,22.30
2019-05-19T09:05:43.263Z,22.10
2019-05-19T09:08:13.657Z,22.20
2019-05-19T09:10:44.141Z,22.60
2019-05-19T09:13:17.409Z,23.60
2019-05-19T09:15:47.574Z,24.40
2019-05-19T09:18:22.242Z,24.90
2019-05-19T09:20:52.932Z,25.30
2019-05-19T09:23:30.723Z,25.50
2019-05-19T09:26:02.190Z,25.70
2019-05-19T09:28:33.285Z,25.40
2019-05-19T09:31:04.844Z,24.60
2019-05-19T09:33:35.563Z,24.50
2019-05-19T09:36:05.870Z,24.70
2019-05-19T09:38:36.114Z,25.80
2019-05-19T09:41:08.867Z,26.80
2019-05-19T09:43:39.188Z,26.50
2019-05-19T09:46:13.784Z,26.30
2019-05-19T09:48:42.525Z,26.30
2019-05-19T09:51:28.848Z,25.80
2019-05-19T09:54:03.064Z,25.70
2019-05-19T09:56:32.958Z,25.10
2019-05-19T09:59:03.291Z,24.80
2019-05-19T10:01:35.801Z,25.00
2019-05-19T10:04:07.173Z,25.30
2019-05-19T10:06:41.548Z,25.90
2019-05-19T10:09:56.160Z,26.20
2019-05-19T10:12:26.750Z,26.60
2019-05-19T10:15:02.742Z,26.60
2019-05-19T10:17:38.242Z,26.50
2019-05-19T10:23:12.515Z,25.70
2019-05-19T10:25:51.503Z,25.30
2019-05-19T10:28:27.683Z,25.30
2019-05-19T10:30:58.565Z,25.60
2019-05-19T10:33:28.578Z,25.80
2019-05-19T10:35:59.334Z,25.80
2019-05-19T10:38:31.944Z,27.00
2019-05-19T10:41:04.775Z,27.40
2019-05-19T10:43:34.713Z,27.40
2019-05-19T10:46:08.459Z,27.50
2019-05-19T10:48:41.533Z,27.40
2019-05-19T10:51:17.669Z,26.90
2019-05-19T10:53:53.321Z,26.50
2019-05-19T10:56:31.296Z,26.10
2019-05-19T10:59:02.735Z,26.00
2019-05-19T11:02:26.864Z,26.10
2019-05-19T11:05:02.920Z,26.10
2019-05-19T11:07:36.569Z,26.90
2019-05-19T11:10:07.304Z,27.50
2019-05-19T11:12:51.189Z,27.80
2019-05-19T11:15:22.043Z,28.30
2019-05-19T11:18:02.357Z,27.60
2019-05-19T11:20:39.890Z,27.10
2019-05-19T11:23:09.859Z,27.30
2019-05-19T11:25:51.623Z,26.50
2019-05-19T11:28:19.364Z,25.90
2019-05-19T11:30:53.883Z,26.00
2019-05-19T11:33:23.914Z,26.10
2019-05-19T11:36:04.382Z,26.20
2019-05-19T11:38:40.289Z,26.20
2019-05-19T11:41:18.132Z,26.10
2019-05-19T11:43:59.564Z,26.00
2019-05-19T11:46:35.102Z,25.50
2019-05-19T11:49:13.407Z,25.30
2019-05-19T11:51:46.023Z,24.90
2019-05-19T11:54:24.746Z,25.00
2019-05-19T11:57:23.913Z,24.70
2019-05-19T11:59:56.791Z,24.70
2019-05-19T12:02:27.714Z,24.50
2019-05-19T12:05:04.745Z,24.60
2019-05-19T12:07:39.849Z,24.60
2019-05-19T12:10:30.518Z,24.40
2019-05-19T12:13:36.133Z,24.50
2019-05-19T12:16:39.985Z,24.60
2019-05-19T12:19:09.861Z,24.40
2019-05-19T12:21:40.072Z,24.30
2019-05-19T12:24:12.631Z,24.00
2019-05-19T12:26:44.260Z,24.10
2019-05-19T12:29:26.502Z,24.20
2019-05-19T12:32:10.616Z,23.90
2019-05-19T12:34:41.475Z,24.10
2019-05-19T12:37:11.381Z,24.40
2019-05-19T12:39:44.740Z,24.40
2019-05-19T12:42:30.479Z,24.40
2019-05-19T12:45:14.898Z,24.30
2019-05-19T12:47:48.356Z,24.20
2019-05-19T12:50:32.894Z,24.20
2019-05-19T12:53:07.885Z,24.20
2019-05-19T12:55:38.243Z,24.30
2019-05-19T12:58:08.452Z,24.30
2019-05-19T13:00:45.246Z,24.50
2019-05-19T13:03:16.312Z,25.00
2019-05-19T13:05:47.897Z,25.50
2019-05-19T13:08:19.457Z,26.40
2019-05-19T13:10:49.477Z,27.50
2019-05-19T13:13:20.133Z,28.10
2019-05-19T13:16:02.753Z,27.60
2019-05-19T13:18:41.934Z,27.20
2019-05-19T13:21:11.495Z,26.80
2019-05-19T13:23:45.403Z,27.10
2019-05-19T13:26:22.259Z,27.20
2019-05-19T13:28:56.872Z,27.30
2019-05-19T13:31:29.815Z,27.40
2019-05-19T13:34:09.647Z,26.80
2019-05-19T13:36:50.330Z,26.30
2019-05-19T13:39:32.760Z,25.80
2019-05-19T13:42:08.512Z,24.80
2019-05-19T13:44:45.711Z,24.00
2019-05-19T13:47:19.420Z,23.50
2019-05-19T13:50:21.490Z,23.00
2019-05-19T13:52:59.724Z,22.80
2019-05-19T20:19:59.031Z,16.30
2019-05-19T20:23:04.657Z,16.30
2019-05-19T20:25:56.321Z,16.40
2019-05-19T20:28:30.279Z,16.60
2019-05-19T20:31:18.865Z,16.60
2019-05-19T20:33:59.303Z,16.40
2019-05-19T20:36:42.964Z,16.30
2019-05-19T20:39:28.952Z,16.20
2019-05-19T20:43:15.094Z,16.20
2019-05-19T20:45:43.599Z,16.20
2019-05-19T20:48:27.693Z,16.40
2019-05-19T20:51:03.315Z,16.50
2019-05-19T20:53:53.520Z,16.30
2019-05-19T20:56:27.454Z,16.20
2019-05-19T20:59:17.549Z,16.10
2019-05-19T21:02:18.906Z,16.10
2019-05-19T21:05:05.687Z,16.10
2019-05-19T21:07:57.257Z,16.00
2019-05-19T21:10:34.012Z,16.00
2019-05-19T21:13:16.603Z,15.90
2019-05-19T21:15:54.699Z,15.80
2019-05-19T21:18:55.921Z,15.80
2019-05-19T21:21:31.449Z,15.80
2019-05-19T21:24:05.476Z,15.70
2019-05-19T21:26:41.798Z,15.60
2019-05-19T21:29:18.022Z,15.50
2019-05-19T21:31:49.775Z,15.50
2019-05-19T21:34:28.706Z,15.40
2019-05-19T21:37:44.035Z,15.30
2019-05-19T21:40:14.890Z,15.20
2019-05-19T21:42:47.413Z,15.20
2019-05-19T21:45:20.540Z,15.10
2019-05-19T21:47:52.076Z,15.10
2019-05-19T21:50:22.306Z,15.00
2019-05-19T21:52:53.383Z,15.00
2019-05-19T21:55:29.191Z,15.00
2019-05-19T21:58:04.119Z,14.90
2019-05-19T22:00:36.405Z,14.90
2019-05-19T22:03:06.364Z,14.80
2019-05-19T22:05:52.533Z,14.80
2019-05-19T22:08:15.337Z,14.80
2019-05-19T22:10:53.345Z,14.70
2019-05-19T22:13:34.204Z,14.60
2019-05-19T22:16:12.768Z,14.60
2019-05-19T22:18:41.229Z,14.50
2019-05-19T22:21:12.960Z,14.40
2019-05-19T22:23:52.092Z,14.40
2019-05-19T22:26:27.080Z,14.40
2019-05-19T22:29:00.898Z,14.30
2019-05-19T22:31:37.024Z,14.30
2019-05-19T22:34:07.273Z,14.30
2019-05-19T22:36:38.175Z,14.30
2019-05-19T22:39:12.348Z,14.30
2019-05-19T22:41:47.086Z,14.30
2019-05-19T22:44:20.301Z,14.20
2019-05-19T22:46:53.516Z,14.10
2019-05-19T22:49:33.187Z,14.20
2019-05-19T22:52:10.758Z,14.10
2019-05-19T22:54:50.556Z,14.10
2019-05-19T22:57:24.142Z,14.00
2019-05-19T22:59:55.088Z,14.00
2019-05-19T23:02:28.196Z,14.00
2019-05-19T23:05:01.942Z,13.90
2019-05-19T23:07:40.056Z,13.80
2019-05-19T23:10:57.129Z,13.80
2019-05-19T23:13:34.370Z,13.80
2019-05-19T23:16:08.014Z,13.80
2019-05-19T23:18:39.356Z,13.70
2019-05-19T23:21:13.732Z,13.70
2019-05-19T23:23:46.204Z,13.60
2019-05-19T23:26:21.546Z,13.60
2019-05-19T23:28:57.312Z,13.60
2019-05-19T23:31:27.951Z,13.50
2019-05-19T23:33:57.938Z,13.50
2019-05-19T23:36:29.538Z,13.50
2019-05-19T23:39:07.234Z,13.50
2019-05-19T23:41:40.237Z,13.50
2019-05-19T23:44:10.164Z,13.40
2019-05-19T23:46:47.094Z,13.50
2019-05-19T23:49:17.746Z,13.50
2019-05-19T23:51:48.937Z,13.50
2019-05-19T23:54:19.000Z,13.40
2019-05-19T23:56:48.808Z,13.50
2019-05-19T23:59:19.466Z,13.50
